createdAt,value
2022-12-31T00:00:03.546Z,928.22
2022-12-31T00:01:03.542Z,928.26
2022-12-31T00:02:03.629Z,928.28
2022-12-31T00:03:03.762Z,928.29
2022-12-31T00:04:03.446Z,928.29
2022-12-31T00:05:03.444Z,928.29
2022-12-31T00:06:03.457Z,928.30
2022-12-31T00:07:03.456Z,928.31
2022-12-31T00:08:03.483Z,928.33
2022-12-31T00:09:03.384Z,928.33
2022-12-31T00:10:03.395Z,928.34
2022-12-31T00:11:03.476Z,928.36
2022-12-31T00:12:03.462Z,928.37
2022-12-31T00:13:03.399Z,928.39
2022-12-31T00:14:03.376Z,928.42
2022-12-31T00:15:03.383Z,928.44
2022-12-31T00:16:08.358Z,928.44
2022-12-31T00:17:03.372Z,928.45
2022-12-31T00:18:03.334Z,928.46
2022-12-31T00:19:03.435Z,928.46
2022-12-31T00:20:03.281Z,928.47
2022-12-31T00:21:03.272Z,928.47
2022-12-31T00:22:03.265Z,928.46
2022-12-31T00:23:03.271Z,928.44
2022-12-31T00:24:03.335Z,928.42
2022-12-31T00:25:03.259Z,928.41
2022-12-31T00:26:03.263Z,928.42
2022-12-31T00:27:03.285Z,928.41
2022-12-31T00:28:03.265Z,928.41
2022-12-31T00:29:03.206Z,928.41
2022-12-31T00:30:04.948Z,928.42
2022-12-31T00:31:03.223Z,928.40
2022-12-31T00:32:03.135Z,928.40
2022-12-31T00:33:03.148Z,928.40
2022-12-31T00:34:03.141Z,928.40
2022-12-31T00:35:03.243Z,928.41
2022-12-31T00:36:03.064Z,928.42
2022-12-31T00:37:03.119Z,928.43
2022-12-31T00:38:03.082Z,928.44
2022-12-31T00:39:03.159Z,928.46
2022-12-31T00:40:03.080Z,928.46
2022-12-31T00:41:03.176Z,928.46
2022-12-31T00:42:03.082Z,928.46
2022-12-31T00:43:03.079Z,928.46
2022-12-31T00:44:03.020Z,928.49
2022-12-31T00:45:03.006Z,928.50
2022-12-31T00:46:03.058Z,928.51
2022-12-31T00:47:02.983Z,928.50
2022-12-31T00:48:02.939Z,928.50
2022-12-31T00:49:02.954Z,928.48
2022-12-31T00:50:02.968Z,928.47
2022-12-31T00:51:02.972Z,928.47
2022-12-31T00:52:02.968Z,928.47
2022-12-31T00:53:02.952Z,928.47
2022-12-31T00:54:02.877Z,928.47
2022-12-31T00:55:02.900Z,928.47
2022-12-31T00:56:02.890Z,928.46
2022-12-31T00:57:02.886Z,928.45
2022-12-31T00:58:03.298Z,928.45
2022-12-31T00:59:02.900Z,928.45
2022-12-31T01:00:02.807Z,928.47
2022-12-31T01:01:02.961Z,928.47
2022-12-31T01:02:02.951Z,928.48
2022-12-31T01:03:02.958Z,928.49
2022-12-31T01:04:03.249Z,928.49
2022-12-31T01:05:02.837Z,928.49
2022-12-31T01:06:02.749Z,928.48
2022-12-31T01:07:02.761Z,928.49
2022-12-31T01:08:02.821Z,928.48
2022-12-31T01:09:02.824Z,928.48
2022-12-31T01:10:02.770Z,928.46
2022-12-31T01:11:02.790Z,928.44
2022-12-31T01:12:02.746Z,928.43
2022-12-31T01:13:02.747Z,928.41
2022-12-31T01:14:02.713Z,928.40
2022-12-31T01:15:02.709Z,928.39
2022-12-31T01:16:02.757Z,928.38
2022-12-31T01:17:02.640Z,928.38
2022-12-31T01:18:02.623Z,928.36
2022-12-31T01:19:02.622Z,928.37
2022-12-31T01:20:02.633Z,928.35
2022-12-31T01:21:02.669Z,928.34
2022-12-31T01:22:02.658Z,928.35
2022-12-31T01:23:02.566Z,928.36
2022-12-31T01:24:02.569Z,928.34
2022-12-31T01:25:02.621Z,928.34
2022-12-31T01:26:02.591Z,928.32
2022-12-31T01:27:02.579Z,928.33
2022-12-31T01:28:02.665Z,928.33
2022-12-31T01:29:02.548Z,928.33
2022-12-31T01:30:02.508Z,928.33
2022-12-31T01:31:02.620Z,928.34
2022-12-31T01:32:02.514Z,928.35
2022-12-31T01:33:02.517Z,928.34
2022-12-31T01:34:02.518Z,928.36
2022-12-31T01:35:02.436Z,928.37
2022-12-31T01:36:02.447Z,928.37
2022-12-31T01:37:02.430Z,928.37
2022-12-31T01:38:02.526Z,928.36
2022-12-31T01:39:02.452Z,928.37
2022-12-31T01:40:02.455Z,928.36
2022-12-31T01:41:02.363Z,928.35
2022-12-31T01:42:02.372Z,928.32
2022-12-31T01:43:02.455Z,928.32
2022-12-31T01:44:02.444Z,928.33
2022-12-31T01:45:02.385Z,928.36
2022-12-31T01:46:02.409Z,928.38
2022-12-31T01:47:02.378Z,928.40
2022-12-31T01:48:02.310Z,928.41
2022-12-31T01:49:02.309Z,928.41
2022-12-31T01:50:02.352Z,928.41
2022-12-31T01:51:02.430Z,928.39
2022-12-31T01:52:02.334Z,928.38
2022-12-31T01:53:02.244Z,928.38
2022-12-31T01:54:02.250Z,928.39
2022-12-31T01:55:02.295Z,928.39
2022-12-31T01:56:02.229Z,928.38
2022-12-31T01:57:02.265Z,928.37
2022-12-31T01:58:02.379Z,928.34
2022-12-31T01:59:02.190Z,928.32
2022-12-31T02:00:02.214Z,928.30
2022-12-31T02:01:02.276Z,928.29
2022-12-31T02:02:02.317Z,928.29
2022-12-31T02:03:02.262Z,928.26
2022-12-31T02:04:02.289Z,928.27
2022-12-31T02:05:02.168Z,928.25
2022-12-31T02:06:02.158Z,928.26
2022-12-31T02:07:02.121Z,928.28
2022-12-31T02:08:02.122Z,928.28
2022-12-31T02:09:02.120Z,928.28
2022-12-31T02:10:02.143Z,928.27
2022-12-31T02:11:02.086Z,928.27
2022-12-31T02:12:02.067Z,928.26
2022-12-31T02:13:02.135Z,928.26
2022-12-31T02:14:02.060Z,928.27
2022-12-31T02:15:02.055Z,928.28
2022-12-31T02:16:02.109Z,928.28
2022-12-31T02:17:02.034Z,928.27
2022-12-31T02:18:02.003Z,928.26
2022-12-31T02:19:01.978Z,928.24
2022-12-31T02:20:02.023Z,928.23
2022-12-31T02:21:02.014Z,928.22
2022-12-31T02:22:01.999Z,928.21
2022-12-31T02:23:01.970Z,928.20
2022-12-31T02:24:01.973Z,928.18
2022-12-31T02:25:01.983Z,928.18
2022-12-31T02:26:01.933Z,928.17
2022-12-31T02:27:01.935Z,928.16
2022-12-31T02:28:01.936Z,928.15
2022-12-31T02:29:01.957Z,928.12
2022-12-31T02:30:01.885Z,928.11
2022-12-31T02:31:01.955Z,928.08
2022-12-31T02:32:01.861Z,928.07
2022-12-31T02:33:02.915Z,928.05
2022-12-31T02:34:01.886Z,928.04
2022-12-31T02:35:01.859Z,928.03
2022-12-31T02:36:01.790Z,928.02
2022-12-31T02:37:01.797Z,928.01
2022-12-31T02:38:01.858Z,927.99
2022-12-31T02:39:01.813Z,927.99
2022-12-31T02:40:01.842Z,927.99
2022-12-31T02:41:01.775Z,927.96
2022-12-31T02:42:01.832Z,927.94
2022-12-31T02:43:01.741Z,927.93
2022-12-31T02:44:01.738Z,927.94
2022-12-31T02:45:01.722Z,927.92
2022-12-31T02:46:01.819Z,927.93
2022-12-31T02:47:01.724Z,927.93
2022-12-31T02:48:01.663Z,927.93
2022-12-31T02:49:01.674Z,927.92
2022-12-31T02:50:01.795Z,927.90
2022-12-31T02:51:01.684Z,927.88
2022-12-31T02:52:01.698Z,927.87
2022-12-31T02:53:01.712Z,927.83
2022-12-31T02:54:01.622Z,927.86
2022-12-31T02:55:01.673Z,927.86
2022-12-31T02:56:01.623Z,927.85
2022-12-31T02:57:01.682Z,927.84
2022-12-31T02:58:01.645Z,927.83
2022-12-31T02:59:01.549Z,927.82
2022-12-31T03:00:01.547Z,927.80
2022-12-31T03:01:01.716Z,927.78
2022-12-31T03:02:01.722Z,927.75
2022-12-31T03:03:01.583Z,927.74
2022-12-31T03:04:01.632Z,927.73
2022-12-31T03:05:01.557Z,927.70
2022-12-31T03:06:01.545Z,927.67
2022-12-31T03:07:01.538Z,927.65
2022-12-31T03:08:01.543Z,927.63
2022-12-31T03:09:01.547Z,927.60
2022-12-31T03:10:02.043Z,927.59
2022-12-31T03:11:01.419Z,927.58
2022-12-31T03:12:01.476Z,927.60
2022-12-31T03:13:01.474Z,927.58
2022-12-31T03:14:01.489Z,927.55
2022-12-31T03:15:01.507Z,927.54
2022-12-31T03:16:01.462Z,927.54
2022-12-31T03:17:01.409Z,927.52
2022-12-31T03:18:01.435Z,927.48
2022-12-31T03:19:01.413Z,927.45
2022-12-31T03:20:01.345Z,927.42
2022-12-31T03:21:01.362Z,927.40
2022-12-31T03:22:01.337Z,927.36
2022-12-31T03:23:01.281Z,927.33
2022-12-31T03:24:01.320Z,927.30
2022-12-31T03:25:01.314Z,927.31
2022-12-31T03:26:01.277Z,927.29
2022-12-31T03:27:01.321Z,927.28
2022-12-31T03:28:01.300Z,927.28
2022-12-31T03:29:01.220Z,927.28
2022-12-31T03:30:01.251Z,927.29
2022-12-31T03:31:01.394Z,927.31
2022-12-31T03:32:01.232Z,927.30
2022-12-31T03:33:01.217Z,927.30
2022-12-31T03:34:01.208Z,927.30
2022-12-31T03:35:01.150Z,927.28
2022-12-31T03:36:01.159Z,927.28
2022-12-31T03:37:01.146Z,927.30
2022-12-31T03:38:01.173Z,927.32
2022-12-31T03:39:01.245Z,927.32
2022-12-31T03:40:01.155Z,927.30
2022-12-31T03:41:01.156Z,927.29
2022-12-31T03:42:01.088Z,927.28
2022-12-31T03:43:01.048Z,927.25
2022-12-31T03:44:01.077Z,927.27
2022-12-31T03:45:01.094Z,927.26
2022-12-31T03:46:01.109Z,927.25
2022-12-31T03:47:01.031Z,927.24
2022-12-31T03:48:01.069Z,927.22
2022-12-31T03:49:01.021Z,927.21
2022-12-31T03:50:01.025Z,927.19
2022-12-31T03:51:01.027Z,927.18
2022-12-31T03:52:00.960Z,927.17
2022-12-31T03:53:00.963Z,927.14
2022-12-31T03:54:00.977Z,927.13
2022-12-31T03:55:00.963Z,927.13
2022-12-31T03:56:00.961Z,927.10
2022-12-31T03:57:00.927Z,927.10
2022-12-31T03:58:01.485Z,927.07
2022-12-31T03:59:00.904Z,927.06
2022-12-31T04:00:00.944Z,927.05
2022-12-31T04:01:01.096Z,927.04
2022-12-31T04:02:01.043Z,927.04
2022-12-31T04:03:00.930Z,927.02
2022-12-31T04:04:00.873Z,927.01
2022-12-31T04:05:00.843Z,926.99
2022-12-31T04:06:00.941Z,926.97
2022-12-31T04:07:00.896Z,926.96
2022-12-31T04:08:01.389Z,926.95
2022-12-31T04:09:00.813Z,926.94
2022-12-31T04:10:00.768Z,926.91
2022-12-31T04:11:00.823Z,926.89
2022-12-31T04:12:00.827Z,926.86
2022-12-31T04:13:00.770Z,926.84
2022-12-31T04:14:00.774Z,926.82
2022-12-31T04:15:00.785Z,926.83
2022-12-31T04:16:00.792Z,926.82
2022-12-31T04:17:00.735Z,926.81
2022-12-31T04:18:00.743Z,926.82
2022-12-31T04:19:00.819Z,926.82
2022-12-31T04:20:00.712Z,926.81
2022-12-31T04:21:00.656Z,926.77
2022-12-31T04:22:00.695Z,926.80
2022-12-31T04:23:00.687Z,926.78
2022-12-31T04:24:00.673Z,926.75
2022-12-31T04:25:00.684Z,926.74
2022-12-31T04:26:00.633Z,926.73
2022-12-31T04:27:07.111Z,926.70
2022-12-31T04:28:00.598Z,926.70
2022-12-31T04:29:00.600Z,926.72
2022-12-31T04:30:00.619Z,926.66
2022-12-31T04:31:00.550Z,926.68
2022-12-31T04:32:00.632Z,926.70
2022-12-31T04:33:00.525Z,926.68
2022-12-31T04:34:00.544Z,926.69
2022-12-31T04:35:00.543Z,926.67
2022-12-31T04:36:00.519Z,926.69
2022-12-31T04:37:00.507Z,926.65
2022-12-31T04:38:00.478Z,926.64
2022-12-31T04:39:00.546Z,926.60
2022-12-31T04:40:05.965Z,926.60
2022-12-31T04:41:00.499Z,926.60
2022-12-31T04:42:00.494Z,926.58
2022-12-31T04:43:00.464Z,926.59
2022-12-31T04:44:00.473Z,926.61
2022-12-31T04:45:00.419Z,926.62
2022-12-31T04:46:00.464Z,926.60
2022-12-31T04:47:00.413Z,926.65
2022-12-31T04:48:00.375Z,926.65
2022-12-31T04:49:00.386Z,926.65
2022-12-31T04:50:00.328Z,926.66
2022-12-31T04:51:00.269Z,926.68
2022-12-31T04:52:00.353Z,926.68
2022-12-31T04:53:00.868Z,926.69
2022-12-31T04:54:00.328Z,926.70
2022-12-31T04:55:00.304Z,926.70
2022-12-31T04:56:00.345Z,926.70
2022-12-31T04:57:00.291Z,926.72
2022-12-31T04:58:00.291Z,926.73
2022-12-31T04:59:00.302Z,926.72
2022-12-31T05:00:00.268Z,926.71
2022-12-31T05:01:00.308Z,926.70
2022-12-31T05:02:00.465Z,926.66
2022-12-31T05:03:00.287Z,926.64
2022-12-31T05:04:00.235Z,926.64
2022-12-31T05:05:00.291Z,926.64
2022-12-31T05:06:00.203Z,926.63
2022-12-31T05:07:00.164Z,926.65
2022-12-31T05:08:00.151Z,926.65
2022-12-31T05:09:00.333Z,926.65
2022-12-31T05:10:00.184Z,926.66
2022-12-31T05:11:00.182Z,926.66
2022-12-31T05:12:00.118Z,926.64
2022-12-31T05:13:00.118Z,926.65
2022-12-31T05:14:00.110Z,926.67
2022-12-31T05:15:00.123Z,926.70
2022-12-31T05:16:00.124Z,926.71
2022-12-31T05:17:00.315Z,926.72
2022-12-31T05:18:00.021Z,926.74
2022-12-31T05:19:01.060Z,926.72
2022-12-31T05:20:00.036Z,926.70
2022-12-31T05:21:00.032Z,926.68
2022-12-31T05:22:00.209Z,926.71
2022-12-31T05:23:00.004Z,926.71
2022-12-31T05:24:00.055Z,926.75
2022-12-31T05:24:59.955Z,926.70
2022-12-31T05:25:59.962Z,926.71
2022-12-31T05:27:00.051Z,926.67
2022-12-31T05:28:00.404Z,926.67
2022-12-31T05:28:59.937Z,926.66
2022-12-31T05:29:59.973Z,926.67
2022-12-31T05:31:00.037Z,926.67
2022-12-31T05:31:59.917Z,926.66
2022-12-31T05:32:59.930Z,926.67
2022-12-31T05:33:59.908Z,926.70
2022-12-31T05:34:59.936Z,926.71
2022-12-31T05:35:59.845Z,926.74
2022-12-31T05:36:59.851Z,926.73
2022-12-31T05:37:59.855Z,926.76
2022-12-31T05:38:59.868Z,926.78
2022-12-31T05:39:59.939Z,926.80
2022-12-31T05:40:59.837Z,926.80
2022-12-31T05:41:59.775Z,926.82
2022-12-31T05:42:59.790Z,926.83
2022-12-31T05:43:59.788Z,926.82
2022-12-31T05:44:59.800Z,926.79
2022-12-31T05:45:59.853Z,926.75
2022-12-31T05:46:59.708Z,926.73
2022-12-31T05:47:59.817Z,926.68
2022-12-31T05:48:59.720Z,926.69
2022-12-31T05:49:59.737Z,926.66
2022-12-31T05:50:59.739Z,926.68
2022-12-31T05:51:59.729Z,926.68
2022-12-31T05:52:59.673Z,926.66
2022-12-31T05:53:59.658Z,926.66
2022-12-31T05:54:59.646Z,926.65
2022-12-31T05:55:59.667Z,926.64
2022-12-31T05:56:59.643Z,926.66
2022-12-31T05:57:59.680Z,926.67
2022-12-31T05:58:59.610Z,926.65
2022-12-31T05:59:59.585Z,926.63
2022-12-31T06:00:59.701Z,926.62
2022-12-31T06:01:59.914Z,926.62
2022-12-31T06:02:59.735Z,926.64
2022-12-31T06:03:59.598Z,926.67
2022-12-31T06:04:59.549Z,926.66
2022-12-31T06:05:59.559Z,926.65
2022-12-31T06:06:59.620Z,926.66
2022-12-31T06:07:59.576Z,926.64
2022-12-31T06:08:59.524Z,926.64
2022-12-31T06:09:59.532Z,926.67
2022-12-31T06:10:59.489Z,926.66
2022-12-31T06:11:59.475Z,926.67
2022-12-31T06:12:59.569Z,926.66
2022-12-31T06:13:59.559Z,926.66
2022-12-31T06:14:59.485Z,926.67
2022-12-31T06:15:59.554Z,926.65
2022-12-31T06:16:59.421Z,926.64
2022-12-31T06:17:59.505Z,926.63
2022-12-31T06:18:59.453Z,926.61
2022-12-31T06:19:59.401Z,926.58
2022-12-31T06:20:59.708Z,926.55
2022-12-31T06:21:59.481Z,926.53
2022-12-31T06:22:59.419Z,926.52
2022-12-31T06:23:59.439Z,926.52
2022-12-31T06:24:59.437Z,926.53
2022-12-31T06:25:59.452Z,926.52
2022-12-31T06:26:59.345Z,926.52
2022-12-31T06:27:59.397Z,926.53
2022-12-31T06:28:59.383Z,926.53
2022-12-31T06:29:59.365Z,926.53
2022-12-31T06:30:59.512Z,926.53
2022-12-31T06:31:59.371Z,926.53
2022-12-31T06:32:59.375Z,926.53
2022-12-31T06:33:59.287Z,926.53
2022-12-31T06:34:59.293Z,926.53
2022-12-31T06:35:59.294Z,926.53
2022-12-31T06:36:59.383Z,926.54
2022-12-31T06:37:59.227Z,926.55
2022-12-31T06:38:59.220Z,926.55
2022-12-31T06:39:59.225Z,926.57
2022-12-31T06:40:59.229Z,926.59
2022-12-31T06:41:59.406Z,926.61
2022-12-31T06:43:00.372Z,926.61
2022-12-31T06:43:59.154Z,926.62
2022-12-31T06:44:59.180Z,926.60
2022-12-31T06:45:59.121Z,926.59
2022-12-31T06:46:59.240Z,926.59
2022-12-31T06:47:59.137Z,926.58
2022-12-31T06:48:59.248Z,926.58
2022-12-31T06:49:59.205Z,926.60
2022-12-31T06:50:59.047Z,926.61
2022-12-31T06:51:59.056Z,926.61
2022-12-31T06:52:59.167Z,926.60
2022-12-31T06:53:59.180Z,926.61
2022-12-31T06:54:59.029Z,926.61
2022-12-31T06:55:59.186Z,926.62
2022-12-31T06:56:59.048Z,926.64
2022-12-31T06:57:58.995Z,926.65
2022-12-31T06:58:59.062Z,926.66
2022-12-31T06:59:59.011Z,926.68
2022-12-31T07:00:59.074Z,926.67
2022-12-31T07:01:59.286Z,926.66
2022-12-31T07:02:59.069Z,926.67
2022-12-31T07:03:58.989Z,926.68
2022-12-31T07:04:58.894Z,926.68
2022-12-31T07:05:59.048Z,926.68
2022-12-31T07:06:58.920Z,926.68
2022-12-31T07:07:58.958Z,926.71
2022-12-31T07:08:58.861Z,926.72
2022-12-31T07:09:59.133Z,926.73
2022-12-31T07:10:58.838Z,926.75
2022-12-31T07:11:59.047Z,926.75
2022-12-31T07:12:58.963Z,926.79
2022-12-31T07:13:59.105Z,926.78
2022-12-31T07:14:59.015Z,926.79
2022-12-31T07:15:59.184Z,926.80
2022-12-31T07:16:58.897Z,926.79
2022-12-31T07:17:59.129Z,926.82
2022-12-31T07:18:58.812Z,926.80
2022-12-31T07:19:58.944Z,926.79
2022-12-31T07:20:58.904Z,926.78
2022-12-31T07:21:58.829Z,926.76
2022-12-31T07:22:58.855Z,926.76
2022-12-31T07:23:58.752Z,926.76
2022-12-31T07:24:58.755Z,926.77
2022-12-31T07:25:58.866Z,926.77
2022-12-31T07:26:58.778Z,926.78
2022-12-31T07:27:58.717Z,926.79
2022-12-31T07:28:58.784Z,926.78
2022-12-31T07:29:58.810Z,926.78
2022-12-31T07:30:58.701Z,926.80
2022-12-31T07:31:58.790Z,926.81
2022-12-31T07:32:59.520Z,926.80
2022-12-31T07:33:58.722Z,926.81
2022-12-31T07:34:58.620Z,926.81
2022-12-31T07:35:58.635Z,926.81
2022-12-31T07:36:59.351Z,926.79
2022-12-31T07:37:58.664Z,926.81
2022-12-31T07:38:58.658Z,926.82
2022-12-31T07:39:58.580Z,926.84
2022-12-31T07:41:00.574Z,926.85
2022-12-31T07:41:58.567Z,926.86
2022-12-31T07:42:58.584Z,926.86
2022-12-31T07:43:58.588Z,926.86
2022-12-31T07:44:58.584Z,926.87
2022-12-31T07:45:58.496Z,926.90
2022-12-31T07:46:58.518Z,926.92
2022-12-31T07:48:02.452Z,926.93
2022-12-31T07:48:58.437Z,926.94
2022-12-31T07:49:58.521Z,926.95
2022-12-31T07:50:58.530Z,926.94
2022-12-31T07:51:58.530Z,926.93
2022-12-31T07:52:58.437Z,926.93
2022-12-31T07:53:58.534Z,926.93
2022-12-31T07:54:58.373Z,926.94
2022-12-31T07:55:58.348Z,926.94
2022-12-31T07:56:58.382Z,926.95
2022-12-31T07:57:58.359Z,926.97
2022-12-31T07:58:58.395Z,927.00
2022-12-31T07:59:58.389Z,927.03
2022-12-31T08:00:58.377Z,927.06
2022-12-31T08:01:58.378Z,927.09
2022-12-31T08:02:58.400Z,927.12
2022-12-31T08:03:58.291Z,927.15
2022-12-31T08:04:58.250Z,927.17
2022-12-31T08:05:58.255Z,927.18
2022-12-31T08:06:58.258Z,927.19
2022-12-31T08:07:58.275Z,927.20
2022-12-31T08:08:58.439Z,927.20
2022-12-31T08:09:58.250Z,927.21
2022-12-31T08:10:58.182Z,927.22
2022-12-31T08:11:58.158Z,927.23
2022-12-31T08:12:58.163Z,927.25
2022-12-31T08:13:58.168Z,927.25
2022-12-31T08:14:58.103Z,927.27
2022-12-31T08:15:58.229Z,927.29
2022-12-31T08:16:58.128Z,927.31
2022-12-31T08:17:58.140Z,927.33
2022-12-31T08:18:58.231Z,927.36
2022-12-31T08:19:58.044Z,927.37
2022-12-31T08:20:58.111Z,927.39
2022-12-31T08:21:58.059Z,927.39
2022-12-31T08:22:58.157Z,927.41
2022-12-31T08:23:58.059Z,927.43
2022-12-31T08:24:58.042Z,927.44
2022-12-31T08:25:58.082Z,927.46
2022-12-31T08:26:57.983Z,927.48
2022-12-31T08:27:57.994Z,927.49
2022-12-31T08:28:57.945Z,927.51
2022-12-31T08:29:58.005Z,927.52
2022-12-31T08:30:58.003Z,927.52
2022-12-31T08:31:58.074Z,927.52
2022-12-31T08:32:58.535Z,927.52
2022-12-31T08:34:02.100Z,927.51
2022-12-31T08:34:57.888Z,927.50
2022-12-31T08:35:57.885Z,927.48
2022-12-31T08:36:57.843Z,927.47
2022-12-31T08:37:57.850Z,927.46
2022-12-31T08:38:57.846Z,927.46
2022-12-31T08:39:57.868Z,927.47
2022-12-31T08:40:57.818Z,927.48
2022-12-31T08:41:57.831Z,927.50
2022-12-31T08:42:57.853Z,927.52
2022-12-31T08:43:57.781Z,927.55
2022-12-31T08:44:57.798Z,927.57
2022-12-31T08:45:57.851Z,927.58
2022-12-31T08:46:57.798Z,927.60
2022-12-31T08:48:00.073Z,927.60
2022-12-31T08:48:57.724Z,927.62
2022-12-31T08:49:57.722Z,927.63
2022-12-31T08:50:57.724Z,927.66
2022-12-31T08:51:57.638Z,927.68
2022-12-31T08:52:57.762Z,927.70
2022-12-31T08:53:57.644Z,927.70
2022-12-31T08:54:57.650Z,927.70
2022-12-31T08:55:57.656Z,927.70
2022-12-31T08:56:57.670Z,927.69
2022-12-31T08:57:57.681Z,927.69
2022-12-31T08:58:57.638Z,927.71
2022-12-31T08:59:57.654Z,927.74
2022-12-31T09:00:57.780Z,927.77
2022-12-31T09:01:57.718Z,927.79
2022-12-31T09:02:57.573Z,927.81
2022-12-31T09:03:57.612Z,927.84
2022-12-31T09:04:57.613Z,927.84
2022-12-31T09:05:57.527Z,927.86
2022-12-31T09:06:57.540Z,927.87
2022-12-31T09:07:57.497Z,927.87
2022-12-31T09:08:57.498Z,927.88
2022-12-31T09:09:57.523Z,927.88
2022-12-31T09:10:57.960Z,927.91
2022-12-31T09:11:57.523Z,927.93
2022-12-31T09:12:57.469Z,927.94
2022-12-31T09:13:57.473Z,927.95
2022-12-31T09:14:57.472Z,927.96
2022-12-31T09:15:57.415Z,927.96
2022-12-31T09:16:57.473Z,927.97
2022-12-31T09:17:57.399Z,927.97
2022-12-31T09:18:57.402Z,927.98
2022-12-31T09:19:57.371Z,928.00
2022-12-31T09:20:57.413Z,928.01
2022-12-31T09:21:57.358Z,928.02
2022-12-31T09:22:57.358Z,928.02
2022-12-31T09:23:57.341Z,928.02
2022-12-31T09:24:57.374Z,928.02
2022-12-31T09:25:57.316Z,928.01
2022-12-31T09:26:57.356Z,928.01
2022-12-31T09:27:57.319Z,928.01
2022-12-31T09:28:57.315Z,928.01
2022-12-31T09:29:57.275Z,928.02
2022-12-31T09:30:57.305Z,928.03
2022-12-31T09:31:57.318Z,928.05
2022-12-31T09:33:01.018Z,928.07
2022-12-31T09:33:57.257Z,928.10
2022-12-31T09:34:57.268Z,928.12
2022-12-31T09:35:57.244Z,928.14
2022-12-31T09:36:57.281Z,928.16
2022-12-31T09:37:57.256Z,928.18
2022-12-31T09:38:57.230Z,928.20
2022-12-31T09:39:57.226Z,928.23
2022-12-31T09:40:57.208Z,928.27
2022-12-31T09:41:57.259Z,928.29
2022-12-31T09:42:57.194Z,928.31
2022-12-31T09:44:00.941Z,928.33
2022-12-31T09:44:57.106Z,928.34
2022-12-31T09:45:57.191Z,928.35
2022-12-31T09:46:57.493Z,928.36
2022-12-31T09:47:57.177Z,928.38
2022-12-31T09:48:57.110Z,928.38
2022-12-31T09:49:57.116Z,928.40
2022-12-31T09:50:57.098Z,928.41
2022-12-31T09:51:57.132Z,928.42
2022-12-31T09:52:57.533Z,928.43
2022-12-31T09:53:57.064Z,928.44
2022-12-31T09:54:57.042Z,928.45
2022-12-31T09:55:57.057Z,928.46
2022-12-31T09:56:59.189Z,928.48
2022-12-31T09:57:57.038Z,928.50
2022-12-31T09:58:57.079Z,928.51
2022-12-31T09:59:56.981Z,928.52
2022-12-31T10:00:57.036Z,928.53
2022-12-31T10:01:57.200Z,928.54
2022-12-31T10:02:57.011Z,928.55
2022-12-31T10:03:56.934Z,928.56
2022-12-31T10:04:57.012Z,928.57
2022-12-31T10:05:56.952Z,928.58
2022-12-31T10:06:56.854Z,928.60
2022-12-31T10:07:56.865Z,928.62
2022-12-31T10:08:56.889Z,928.63
2022-12-31T10:09:56.877Z,928.64
2022-12-31T10:10:56.888Z,928.66
2022-12-31T10:11:56.856Z,928.68
2022-12-31T10:12:56.799Z,928.71
2022-12-31T10:13:56.803Z,928.73
2022-12-31T10:14:56.804Z,928.74
2022-12-31T10:15:56.988Z,928.76
2022-12-31T10:16:56.875Z,928.79
2022-12-31T10:17:56.788Z,928.81
2022-12-31T10:18:56.731Z,928.82
2022-12-31T10:19:56.823Z,928.83
2022-12-31T10:20:56.841Z,928.84
2022-12-31T10:21:56.754Z,928.85
2022-12-31T10:22:56.663Z,928.86
2022-12-31T10:23:56.661Z,928.86
2022-12-31T10:24:56.669Z,928.87
2022-12-31T10:25:56.666Z,928.87
2022-12-31T10:26:56.766Z,928.87
2022-12-31T10:27:57.002Z,928.87
2022-12-31T10:28:56.650Z,928.86
2022-12-31T10:29:56.658Z,928.87
2022-12-31T10:30:56.658Z,928.86
2022-12-31T10:31:56.675Z,928.86
2022-12-31T10:32:56.618Z,928.86
2022-12-31T10:33:56.691Z,928.86
2022-12-31T10:34:56.606Z,928.86
2022-12-31T10:35:56.539Z,928.87
2022-12-31T10:36:56.553Z,928.87
2022-12-31T10:37:56.652Z,928.88
2022-12-31T10:38:56.564Z,928.90
2022-12-31T10:39:56.615Z,928.91
2022-12-31T10:40:56.523Z,928.93
2022-12-31T10:41:56.547Z,928.94
2022-12-31T10:42:56.482Z,928.94
2022-12-31T10:43:56.495Z,928.94
2022-12-31T10:44:56.555Z,928.94
2022-12-31T10:45:56.605Z,928.96
2022-12-31T10:46:56.522Z,928.96
2022-12-31T10:47:56.625Z,928.96
2022-12-31T10:48:56.444Z,928.95
2022-12-31T10:49:56.438Z,928.94
2022-12-31T10:50:56.538Z,928.93
2022-12-31T10:51:56.486Z,928.92
2022-12-31T10:52:56.518Z,928.92
2022-12-31T10:53:56.353Z,928.92
2022-12-31T10:54:56.360Z,928.93
2022-12-31T10:55:56.369Z,928.94
2022-12-31T10:56:56.416Z,928.96
2022-12-31T10:58:02.005Z,928.97
2022-12-31T10:58:56.428Z,928.95
2022-12-31T10:59:56.335Z,928.96
2022-12-31T11:00:56.347Z,928.97
2022-12-31T11:01:56.383Z,928.97
2022-12-31T11:02:56.499Z,928.97
2022-12-31T11:03:56.288Z,928.98
2022-12-31T11:04:56.266Z,928.99
2022-12-31T11:05:56.225Z,928.99
2022-12-31T11:06:56.234Z,929.01
2022-12-31T11:07:56.237Z,929.02
2022-12-31T11:08:56.557Z,929.02
2022-12-31T11:09:56.201Z,929.02
2022-12-31T11:10:56.212Z,929.03
2022-12-31T11:11:56.165Z,929.04
2022-12-31T11:12:56.168Z,929.06
2022-12-31T11:13:56.278Z,929.07
2022-12-31T11:14:56.206Z,929.08
2022-12-31T11:15:56.287Z,929.08
2022-12-31T11:16:56.149Z,929.10
2022-12-31T11:17:56.163Z,929.09
2022-12-31T11:18:56.227Z,929.07
2022-12-31T11:19:56.175Z,929.07
2022-12-31T11:20:56.131Z,929.09
2022-12-31T11:21:56.286Z,929.11
2022-12-31T11:22:56.093Z,929.11
2022-12-31T11:23:56.108Z,929.13
2022-12-31T11:24:56.105Z,929.15
2022-12-31T11:25:56.093Z,929.16
2022-12-31T11:26:56.024Z,929.17
2022-12-31T11:27:56.063Z,929.17
2022-12-31T11:28:55.988Z,929.18
2022-12-31T11:29:56.049Z,929.20
2022-12-31T11:30:56.090Z,929.21
2022-12-31T11:31:55.992Z,929.22
2022-12-31T11:32:55.965Z,929.23
2022-12-31T11:33:56.075Z,929.22
2022-12-31T11:34:55.931Z,929.22
2022-12-31T11:35:55.942Z,929.22
2022-12-31T11:36:55.907Z,929.22
2022-12-31T11:37:55.894Z,929.21
2022-12-31T11:38:55.900Z,929.21
2022-12-31T11:39:55.916Z,929.21
2022-12-31T11:40:55.878Z,929.22
2022-12-31T11:41:55.894Z,929.22
2022-12-31T11:42:55.896Z,929.22
2022-12-31T11:43:55.838Z,929.22
2022-12-31T11:44:55.811Z,929.22
2022-12-31T11:45:55.814Z,929.20
2022-12-31T11:46:55.809Z,929.21
2022-12-31T11:48:29.256Z,929.20
2022-12-31T11:48:55.790Z,929.19
2022-12-31T11:49:55.823Z,929.19
2022-12-31T11:50:55.775Z,929.18
2022-12-31T11:51:55.741Z,929.19
2022-12-31T11:52:55.735Z,929.20
2022-12-31T11:53:55.848Z,929.22
2022-12-31T11:54:55.702Z,929.22
2022-12-31T11:55:55.734Z,929.21
2022-12-31T11:56:55.678Z,929.21
2022-12-31T11:57:55.721Z,929.20
2022-12-31T11:58:55.709Z,929.20
2022-12-31T11:59:55.663Z,929.21
2022-12-31T12:00:55.706Z,929.21
2022-12-31T12:01:55.610Z,929.19
2022-12-31T12:02:55.805Z,929.20
2022-12-31T12:03:55.733Z,929.18
2022-12-31T12:04:55.627Z,929.18
2022-12-31T12:05:55.638Z,929.18
2022-12-31T12:06:55.642Z,929.17
2022-12-31T12:07:55.608Z,929.16
2022-12-31T12:08:55.591Z,929.16
2022-12-31T12:09:55.567Z,929.17
2022-12-31T12:10:56.527Z,929.16
2022-12-31T12:11:55.660Z,929.16
2022-12-31T12:12:55.543Z,929.16
2022-12-31T12:13:55.526Z,929.15
2022-12-31T12:14:55.561Z,929.14
2022-12-31T12:15:55.582Z,929.16
2022-12-31T12:16:59.164Z,929.16
2022-12-31T12:17:55.576Z,929.16
2022-12-31T12:18:55.416Z,929.16
2022-12-31T12:19:55.481Z,929.19
2022-12-31T12:20:55.512Z,929.17
2022-12-31T12:21:55.434Z,929.19
2022-12-31T12:22:55.442Z,929.20
2022-12-31T12:23:55.565Z,929.22
2022-12-31T12:24:55.371Z,929.24
2022-12-31T12:25:55.379Z,929.26
2022-12-31T12:26:55.450Z,929.27
2022-12-31T12:27:55.424Z,929.29